Terminal Aerodrome Forecast
Issued by NWS

Home | Current Version | Previous Version | Graphics & Text | Print | Product List | Glossary On
Versions: 1 2 3 4 5 6 7 8 9 10 11 12 13 14 15 16 17 18 19 20 21
000
FTUS43 KGRB 192300 RRA
TAFATW
TAF
KATW 192343Z 2000/2024 19014G24KT P6SM SCT070 BKN150 WS012/20040KT
     FM200400 21012G18KT P6SM SCT035 BKN070 WS012/23040KT
      TEMPO 2005/2007 4SM SHRA OVC035
     FM200900 23012G18KT P6SM SCT012 BKN080 WS015/25040KT
      TEMPO 2010/2014 4SM SHRA BR BKN012
     FM201400 24011G18KT P6SM SCT015 BKN100
     FM201900 28011G18KT P6SM SCT030 SCT100=

USA.gov is the U.S. government's official web portal to all federal, state and local government web resources and services.